sensor_id;sensor_type;location;lat;lon;timestamp;P1;durP1;ratioP1;P2;durP2;ratioP2
4023;SDS011;2026;51.002;13.668;2023-08-07T00:03:46;2.37;;;2.17;;
4023;SDS011;2026;51.002;13.668;2023-08-07T00:08:49;2.73;;;2.10;;
4023;SDS011;2026;51.002;13.668;2023-08-07T00:13:52;2.70;;;2.50;;
4023;SDS011;2026;51.002;13.668;2023-08-07T00:18:56;2.87;;;2.50;;
4023;SDS011;2026;51.002;13.668;2023-08-07T00:23:59;2.70;;;2.50;;
4023;SDS011;2026;51.002;13.668;2023-08-07T00:29:02;5.27;;;2.70;;
4023;SDS011;2026;51.002;13.668;2023-08-07T00:34:06;3.83;;;2.80;;
4023;SDS011;2026;51.002;13.668;2023-08-07T00:39:11;5.00;;;2.67;;
4023;SDS011;2026;51.002;13.668;2023-08-07T00:44:14;2.93;;;2.63;;
4023;SDS011;2026;51.002;13.668;2023-08-07T00:49:18;3.07;;;2.87;;
4023;SDS011;2026;51.002;13.668;2023-08-07T00:54:21;3.20;;;2.90;;
4023;SDS011;2026;51.002;13.668;2023-08-07T00:59:24;3.70;;;2.70;;
4023;SDS011;2026;51.002;13.668;2023-08-07T01:04:28;3.50;;;3.20;;
4023;SDS011;2026;51.002;13.668;2023-08-07T01:09:31;4.37;;;3.23;;
4023;SDS011;2026;51.002;13.668;2023-08-07T01:14:36;3.27;;;2.97;;
4023;SDS011;2026;51.002;13.668;2023-08-07T01:19:41;3.77;;;2.50;;
4023;SDS011;2026;51.002;13.668;2023-08-07T01:24:47;4.67;;;3.20;;
4023;SDS011;2026;51.002;13.668;2023-08-07T01:29:51;3.03;;;2.73;;
4023;SDS011;2026;51.002;13.668;2023-08-07T01:34:57;4.27;;;3.23;;
4023;SDS011;2026;51.002;13.668;2023-08-07T01:40:02;2.80;;;2.50;;
4023;SDS011;2026;51.002;13.668;2023-08-07T01:45:06;2.80;;;2.60;;
4023;SDS011;2026;51.002;13.668;2023-08-07T01:50:08;2.60;;;2.40;;
4023;SDS011;2026;51.002;13.668;2023-08-07T01:55:13;3.13;;;2.60;;
4023;SDS011;2026;51.002;13.668;2023-08-07T02:00:21;3.37;;;3.03;;
4023;SDS011;2026;51.002;13.668;2023-08-07T02:05:24;3.13;;;2.83;;
4023;SDS011;2026;51.002;13.668;2023-08-07T02:10:28;3.63;;;3.33;;
4023;SDS011;2026;51.002;13.668;2023-08-07T02:15:32;4.03;;;3.63;;
4023;SDS011;2026;51.002;13.668;2023-08-07T02:20:36;5.30;;;4.80;;
4023;SDS011;2026;51.002;13.668;2023-08-07T02:25:40;5.97;;;5.40;;
4023;SDS011;2026;51.002;13.668;2023-08-07T02:30:44;5.40;;;4.90;;
4023;SDS011;2026;51.002;13.668;2023-08-07T02:35:48;6.53;;;4.87;;
4023;SDS011;2026;51.002;13.668;2023-08-07T02:40:53;5.47;;;4.97;;
4023;SDS011;2026;51.002;13.668;2023-08-07T02:45:56;6.73;;;5.73;;
4023;SDS011;2026;51.002;13.668;2023-08-07T02:51:00;5.93;;;5.07;;
4023;SDS011;2026;51.002;13.668;2023-08-07T02:56:04;6.40;;;5.80;;
4023;SDS011;2026;51.002;13.668;2023-08-07T03:01:07;5.23;;;4.50;;
4023;SDS011;2026;51.002;13.668;2023-08-07T03:06:10;4.80;;;4.40;;
4023;SDS011;2026;51.002;13.668;2023-08-07T03:11:14;3.67;;;3.37;;
4023;SDS011;2026;51.002;13.668;2023-08-07T03:16:17;4.20;;;3.80;;
4023;SDS011;2026;51.002;13.668;2023-08-07T03:21:20;3.30;;;3.00;;
4023;SDS011;2026;51.002;13.668;2023-08-07T03:26:24;4.00;;;3.43;;
4023;SDS011;2026;51.002;13.668;2023-08-07T03:31:27;5.50;;;3.87;;
4023;SDS011;2026;51.002;13.668;2023-08-07T03:36:30;4.10;;;3.70;;
4023;SDS011;2026;51.002;13.668;2023-08-07T03:41:35;4.63;;;4.13;;
4023;SDS011;2026;51.002;13.668;2023-08-07T03:46:38;3.50;;;2.93;;
4023;SDS011;2026;51.002;13.668;2023-08-07T03:51:41;4.17;;;3.77;;
4023;SDS011;2026;51.002;13.668;2023-08-07T03:56:45;4.97;;;3.83;;
4023;SDS011;2026;51.002;13.668;2023-08-07T04:01:48;4.47;;;3.93;;
4023;SDS011;2026;51.002;13.668;2023-08-07T04:06:51;4.60;;;3.80;;
4023;SDS011;2026;51.002;13.668;2023-08-07T04:11:56;4.77;;;4.27;;
4023;SDS011;2026;51.002;13.668;2023-08-07T04:16:59;4.30;;;3.90;;
4023;SDS011;2026;51.002;13.668;2023-08-07T04:22:02;5.83;;;5.23;;
4023;SDS011;2026;51.002;13.668;2023-08-07T04:27:07;6.83;;;4.83;;
4023;SDS011;2026;51.002;13.668;2023-08-07T04:32:10;6.40;;;5.70;;
4023;SDS011;2026;51.002;13.668;2023-08-07T04:37:13;10.90;;;6.50;;
4023;SDS011;2026;51.002;13.668;2023-08-07T04:42:17;6.67;;;6.00;;
4023;SDS011;2026;51.002;13.668;2023-08-07T04:47:20;10.30;;;6.27;;
4023;SDS011;2026;51.002;13.668;2023-08-07T04:52:22;8.40;;;6.50;;
4023;SDS011;2026;51.002;13.668;2023-08-07T04:57:28;8.17;;;6.90;;
4023;SDS011;2026;51.002;13.668;2023-08-07T05:02:31;9.33;;;5.80;;
4023;SDS011;2026;51.002;13.668;2023-08-07T05:07:34;7.50;;;6.40;;
4023;SDS011;2026;51.002;13.668;2023-08-07T05:12:38;8.17;;;6.63;;
4023;SDS011;2026;51.002;13.668;2023-08-07T05:17:41;14.20;;;6.40;;
4023;SDS011;2026;51.002;13.668;2023-08-07T05:22:43;7.40;;;5.80;;
4023;SDS011;2026;51.002;13.668;2023-08-07T05:27:48;8.40;;;6.30;;
4023;SDS011;2026;51.002;13.668;2023-08-07T05:32:51;8.40;;;5.97;;
4023;SDS011;2026;51.002;13.668;2023-08-07T05:37:53;8.60;;;5.53;;
4023;SDS011;2026;51.002;13.668;2023-08-07T05:42:57;6.93;;;5.50;;
4023;SDS011;2026;51.002;13.668;2023-08-07T05:48:00;5.57;;;4.97;;
4023;SDS011;2026;51.002;13.668;2023-08-07T05:53:03;6.40;;;4.67;;
4023;SDS011;2026;51.002;13.668;2023-08-07T05:58:07;5.70;;;5.03;;
4023;SDS011;2026;51.002;13.668;2023-08-07T06:03:10;5.90;;;4.50;;
4023;SDS011;2026;51.002;13.668;2023-08-07T06:08:12;5.10;;;4.60;;
4023;SDS011;2026;51.002;13.668;2023-08-07T06:13:17;5.70;;;4.57;;
4023;SDS011;2026;51.002;13.668;2023-08-07T06:18:35;4.50;;;4.10;;
4023;SDS011;2026;51.002;13.668;2023-08-07T06:23:38;4.03;;;3.63;;
4023;SDS011;2026;51.002;13.668;2023-08-07T06:28:42;5.00;;;3.60;;
4023;SDS011;2026;51.002;13.668;2023-08-07T06:33:46;4.17;;;3.17;;
4023;SDS011;2026;51.002;13.668;2023-08-07T06:38:48;3.10;;;2.80;;
4023;SDS011;2026;51.002;13.668;2023-08-07T06:43:53;4.60;;;2.73;;
4023;SDS011;2026;51.002;13.668;2023-08-07T06:48:56;5.60;;;3.50;;
4023;SDS011;2026;51.002;13.668;2023-08-07T06:53:58;5.27;;;3.53;;
4023;SDS011;2026;51.002;13.668;2023-08-07T06:59:02;4.00;;;3.20;;
4023;SDS011;2026;51.002;13.668;2023-08-07T07:04:05;3.80;;;2.60;;
4023;SDS011;2026;51.002;13.668;2023-08-07T07:09:09;4.43;;;2.63;;
4023;SDS011;2026;51.002;13.668;2023-08-07T07:14:13;4.33;;;2.77;;
4023;SDS011;2026;51.002;13.668;2023-08-07T07:19:16;4.00;;;2.67;;
4023;SDS011;2026;51.002;13.668;2023-08-07T07:24:19;3.67;;;2.50;;
4023;SDS011;2026;51.002;13.668;2023-08-07T07:29:23;3.43;;;2.50;;
4023;SDS011;2026;51.002;13.668;2023-08-07T07:34:26;2.40;;;2.13;;
4023;SDS011;2026;51.002;13.668;2023-08-07T07:39:29;2.43;;;2.20;;
4023;SDS011;2026;51.002;13.668;2023-08-07T07:44:33;3.13;;;2.33;;
4023;SDS011;2026;51.002;13.668;2023-08-07T07:49:36;2.00;;;1.80;;
4023;SDS011;2026;51.002;13.668;2023-08-07T07:54:39;2.77;;;1.60;;
4023;SDS011;2026;51.002;13.668;2023-08-07T07:59:43;2.90;;;1.73;;
4023;SDS011;2026;51.002;13.668;2023-08-07T08:04:46;2.30;;;1.50;;
4023;SDS011;2026;51.002;13.668;2023-08-07T08:09:49;1.90;;;1.80;;
4023;SDS011;2026;51.002;13.668;2023-08-07T08:14:54;3.10;;;1.67;;
4023;SDS011;2026;51.002;13.668;2023-08-07T08:19:57;2.07;;;1.53;;
4023;SDS011;2026;51.002;13.668;2023-08-07T08:25:00;2.37;;;1.70;;
4023;SDS011;2026;51.002;13.668;2023-08-07T08:30:05;2.87;;;2.10;;
4023;SDS011;2026;51.002;13.668;2023-08-07T08:35:08;2.30;;;1.50;;
4023;SDS011;2026;51.002;13.668;2023-08-07T08:40:11;2.50;;;1.60;;
4023;SDS011;2026;51.002;13.668;2023-08-07T08:45:19;2.10;;;1.73;;
4023;SDS011;2026;51.002;13.668;2023-08-07T08:50:23;3.47;;;1.97;;
4023;SDS011;2026;51.002;13.668;2023-08-07T08:55:25;1.77;;;1.67;;
4023;SDS011;2026;51.002;13.668;2023-08-07T09:00:30;2.60;;;1.80;;
4023;SDS011;2026;51.002;13.668;2023-08-07T09:05:33;3.43;;;1.77;;
4023;SDS011;2026;51.002;13.668;2023-08-07T09:10:37;1.87;;;1.60;;
4023;SDS011;2026;51.002;13.668;2023-08-07T09:20:43;2.83;;;1.60;;
4023;SDS011;2026;51.002;13.668;2023-08-07T09:25:45;1.70;;;1.60;;
4023;SDS011;2026;51.002;13.668;2023-08-07T09:30:48;7.40;;;1.70;;
4023;SDS011;2026;51.002;13.668;2023-08-07T09:35:58;1.60;;;1.50;;
4023;SDS011;2026;51.002;13.668;2023-08-07T09:41:01;1.60;;;1.50;;
4023;SDS011;2026;51.002;13.668;2023-08-07T09:46:05;2.10;;;1.43;;
4023;SDS011;2026;51.002;13.668;2023-08-07T09:51:10;1.50;;;1.40;;
4023;SDS011;2026;51.002;13.668;2023-08-07T09:56:13;1.80;;;1.50;;
4023;SDS011;2026;51.002;13.668;2023-08-07T10:01:16;2.17;;;1.60;;
4023;SDS011;2026;51.002;13.668;2023-08-07T10:06:21;1.20;;;1.10;;
4023;SDS011;2026;51.002;13.668;2023-08-07T10:11:24;1.83;;;1.53;;
4023;SDS011;2026;51.002;13.668;2023-08-07T10:16:27;2.37;;;1.70;;
4023;SDS011;2026;51.002;13.668;2023-08-07T10:21:31;2.13;;;1.30;;
4023;SDS011;2026;51.002;13.668;2023-08-07T10:26:36;1.70;;;1.43;;
4023;SDS011;2026;51.002;13.668;2023-08-07T10:31:40;1.70;;;1.50;;
4023;SDS011;2026;51.002;13.668;2023-08-07T10:36:45;1.70;;;1.40;;
4023;SDS011;2026;51.002;13.668;2023-08-07T10:41:52;1.60;;;1.33;;
4023;SDS011;2026;51.002;13.668;2023-08-07T10:46:55;1.30;;;1.20;;
4023;SDS011;2026;51.002;13.668;2023-08-07T10:52:01;1.83;;;1.43;;
4023;SDS011;2026;51.002;13.668;2023-08-07T10:57:04;2.40;;;1.50;;
4023;SDS011;2026;51.002;13.668;2023-08-07T11:02:12;4.90;;;1.97;;
4023;SDS011;2026;51.002;13.668;2023-08-07T11:07:23;2.57;;;1.53;;
4023;SDS011;2026;51.002;13.668;2023-08-07T11:12:25;4.70;;;2.97;;
4023;SDS011;2026;51.002;13.668;2023-08-07T11:17:28;2.67;;;1.70;;
4023;SDS011;2026;51.002;13.668;2023-08-07T11:22:33;1.80;;;1.43;;
4023;SDS011;2026;51.002;13.668;2023-08-07T11:27:35;1.40;;;1.30;;
4023;SDS011;2026;51.002;13.668;2023-08-07T11:32:38;1.87;;;1.37;;
4023;SDS011;2026;51.002;13.668;2023-08-07T11:37:46;1.63;;;1.33;;
4023;SDS011;2026;51.002;13.668;2023-08-07T11:42:49;2.60;;;1.30;;
4023;SDS011;2026;51.002;13.668;2023-08-07T11:47:52;1.37;;;1.20;;
4023;SDS011;2026;51.002;13.668;2023-08-07T11:52:58;2.20;;;1.27;;
4023;SDS011;2026;51.002;13.668;2023-08-07T11:58:02;1.30;;;1.00;;
4023;SDS011;2026;51.002;13.668;2023-08-07T12:08:24;2.80;;;1.10;;
4023;SDS011;2026;51.002;13.668;2023-08-07T12:13:27;1.40;;;1.17;;
4023;SDS011;2026;51.002;13.668;2023-08-07T12:18:30;1.10;;;1.00;;
4023;SDS011;2026;51.002;13.668;2023-08-07T12:23:35;1.80;;;0.93;;
4023;SDS011;2026;51.002;13.668;2023-08-07T12:28:38;1.20;;;1.10;;
4023;SDS011;2026;51.002;13.668;2023-08-07T12:33:41;2.77;;;1.00;;
4023;SDS011;2026;51.002;13.668;2023-08-07T12:38:45;1.47;;;1.33;;
4023;SDS011;2026;51.002;13.668;2023-08-07T12:43:48;4.20;;;2.00;;
4023;SDS011;2026;51.002;13.668;2023-08-07T12:48:51;1.07;;;1.00;;
4023;SDS011;2026;51.002;13.668;2023-08-07T12:53:55;3.13;;;1.30;;
4023;SDS011;2026;51.002;13.668;2023-08-07T12:58:58;3.40;;;1.30;;
4023;SDS011;2026;51.002;13.668;2023-08-07T13:04:01;1.33;;;1.17;;
4023;SDS011;2026;51.002;13.668;2023-08-07T13:09:07;4.53;;;1.30;;
4023;SDS011;2026;51.002;13.668;2023-08-07T13:14:10;1.37;;;1.00;;
4023;SDS011;2026;51.002;13.668;2023-08-07T13:19:12;3.83;;;1.63;;
4023;SDS011;2026;51.002;13.668;2023-08-07T13:24:16;1.20;;;1.00;;
4023;SDS011;2026;51.002;13.668;2023-08-07T13:29:19;0.80;;;0.80;;
4023;SDS011;2026;51.002;13.668;2023-08-07T13:34:23;0.97;;;0.87;;
4023;SDS011;2026;51.002;13.668;2023-08-07T13:39:27;2.20;;;0.83;;
4023;SDS011;2026;51.002;13.668;2023-08-07T13:44:30;0.80;;;0.80;;
4023;SDS011;2026;51.002;13.668;2023-08-07T13:49:33;0.63;;;0.63;;
4023;SDS011;2026;51.002;13.668;2023-08-07T13:54:38;2.20;;;0.90;;
4023;SDS011;2026;51.002;13.668;2023-08-07T13:59:40;1.07;;;0.90;;
4023;SDS011;2026;51.002;13.668;2023-08-07T14:04:43;1.73;;;1.10;;
4023;SDS011;2026;51.002;13.668;2023-08-07T14:09:48;2.33;;;0.90;;
4023;SDS011;2026;51.002;13.668;2023-08-07T14:14:51;1.87;;;0.93;;
4023;SDS011;2026;51.002;13.668;2023-08-07T14:19:54;1.00;;;0.90;;
4023;SDS011;2026;51.002;13.668;2023-08-07T14:24:58;3.50;;;1.00;;
4023;SDS011;2026;51.002;13.668;2023-08-07T14:30:01;1.10;;;1.00;;
4023;SDS011;2026;51.002;13.668;2023-08-07T14:35:04;1.37;;;1.03;;
4023;SDS011;2026;51.002;13.668;2023-08-07T14:40:08;1.87;;;1.47;;
4023;SDS011;2026;51.002;13.668;2023-08-07T14:45:11;2.80;;;1.50;;
4023;SDS011;2026;51.002;13.668;2023-08-07T14:50:14;3.37;;;2.00;;
4023;SDS011;2026;51.002;13.668;2023-08-07T14:55:19;3.17;;;1.70;;
4023;SDS011;2026;51.002;13.668;2023-08-07T15:00:22;2.00;;;1.50;;
4023;SDS011;2026;51.002;13.668;2023-08-07T15:05:24;1.97;;;1.47;;
4023;SDS011;2026;51.002;13.668;2023-08-07T15:10:28;1.73;;;1.07;;
4023;SDS011;2026;51.002;13.668;2023-08-07T15:15:31;1.90;;;1.40;;
4023;SDS011;2026;51.002;13.668;2023-08-07T15:20:34;3.30;;;2.23;;
4023;SDS011;2026;51.002;13.668;2023-08-07T15:25:39;1.90;;;1.57;;
4023;SDS011;2026;51.002;13.668;2023-08-07T15:30:44;2.17;;;1.13;;
4023;SDS011;2026;51.002;13.668;2023-08-07T15:35:49;1.90;;;1.37;;
4023;SDS011;2026;51.002;13.668;2023-08-07T15:40:54;1.57;;;1.47;;
4023;SDS011;2026;51.002;13.668;2023-08-07T15:45:57;1.10;;;1.00;;
4023;SDS011;2026;51.002;13.668;2023-08-07T15:51:00;1.23;;;1.13;;
4023;SDS011;2026;51.002;13.668;2023-08-07T15:56:04;1.07;;;0.97;;
4023;SDS011;2026;51.002;13.668;2023-08-07T16:01:07;3.10;;;1.70;;
4023;SDS011;2026;51.002;13.668;2023-08-07T16:06:10;4.63;;;1.53;;
4023;SDS011;2026;51.002;13.668;2023-08-07T16:11:14;2.20;;;1.30;;
4023;SDS011;2026;51.002;13.668;2023-08-07T16:16:16;2.00;;;1.33;;
4023;SDS011;2026;51.002;13.668;2023-08-07T16:21:19;4.03;;;1.90;;
4023;SDS011;2026;51.002;13.668;2023-08-07T16:26:23;5.30;;;1.80;;
4023;SDS011;2026;51.002;13.668;2023-08-07T16:31:26;1.23;;;1.07;;
4023;SDS011;2026;51.002;13.668;2023-08-07T16:36:29;5.23;;;1.20;;
4023;SDS011;2026;51.002;13.668;2023-08-07T16:41:33;2.00;;;1.30;;
4023;SDS011;2026;51.002;13.668;2023-08-07T16:46:36;3.10;;;1.30;;
4023;SDS011;2026;51.002;13.668;2023-08-07T16:51:39;6.93;;;1.23;;
4023;SDS011;2026;51.002;13.668;2023-08-07T16:56:43;2.80;;;1.43;;
4023;SDS011;2026;51.002;13.668;2023-08-07T17:01:46;3.60;;;1.70;;
4023;SDS011;2026;51.002;13.668;2023-08-07T17:06:49;3.10;;;1.40;;
4023;SDS011;2026;51.002;13.668;2023-08-07T17:11:53;8.00;;;3.23;;
4023;SDS011;2026;51.002;13.668;2023-08-07T17:16:56;1.83;;;1.50;;
4023;SDS011;2026;51.002;13.668;2023-08-07T17:21:59;6.57;;;3.63;;
4023;SDS011;2026;51.002;13.668;2023-08-07T17:27:05;3.80;;;2.10;;
4023;SDS011;2026;51.002;13.668;2023-08-07T17:32:08;4.57;;;2.00;;
4023;SDS011;2026;51.002;13.668;2023-08-07T17:37:11;4.13;;;1.87;;
4023;SDS011;2026;51.002;13.668;2023-08-07T17:42:16;4.67;;;1.80;;
4023;SDS011;2026;51.002;13.668;2023-08-07T17:47:19;7.77;;;1.80;;
4023;SDS011;2026;51.002;13.668;2023-08-07T17:52:22;4.93;;;2.03;;
4023;SDS011;2026;51.002;13.668;2023-08-07T17:57:28;1.90;;;1.60;;
4023;SDS011;2026;51.002;13.668;2023-08-07T18:02:30;4.20;;;1.77;;
4023;SDS011;2026;51.002;13.668;2023-08-07T18:07:33;2.57;;;2.03;;
4023;SDS011;2026;51.002;13.668;2023-08-07T18:12:37;4.03;;;1.70;;
4023;SDS011;2026;51.002;13.668;2023-08-07T18:17:40;3.53;;;2.03;;
4023;SDS011;2026;51.002;13.668;2023-08-07T18:22:43;3.53;;;2.17;;
4023;SDS011;2026;51.002;13.668;2023-08-07T18:27:47;7.23;;;2.37;;
4023;SDS011;2026;51.002;13.668;2023-08-07T18:32:50;4.43;;;2.20;;
4023;SDS011;2026;51.002;13.668;2023-08-07T18:37:55;3.53;;;2.23;;
4023;SDS011;2026;51.002;13.668;2023-08-07T18:42:59;6.87;;;2.63;;
4023;SDS011;2026;51.002;13.668;2023-08-07T18:48:02;5.10;;;2.80;;
4023;SDS011;2026;51.002;13.668;2023-08-07T18:53:05;5.03;;;2.23;;
4023;SDS011;2026;51.002;13.668;2023-08-07T18:58:09;3.97;;;2.70;;
4023;SDS011;2026;51.002;13.668;2023-08-07T19:03:12;4.53;;;2.63;;
4023;SDS011;2026;51.002;13.668;2023-08-07T19:08:16;8.73;;;3.07;;
4023;SDS011;2026;51.002;13.668;2023-08-07T19:13:21;4.27;;;2.57;;
4023;SDS011;2026;51.002;13.668;2023-08-07T19:18:23;6.70;;;2.90;;
4023;SDS011;2026;51.002;13.668;2023-08-07T19:23:27;6.97;;;2.70;;
4023;SDS011;2026;51.002;13.668;2023-08-07T19:28:34;6.40;;;2.80;;
4023;SDS011;2026;51.002;13.668;2023-08-07T19:33:37;5.87;;;2.93;;
4023;SDS011;2026;51.002;13.668;2023-08-07T19:38:40;6.03;;;2.60;;
4023;SDS011;2026;51.002;13.668;2023-08-07T19:43:44;5.87;;;2.70;;
4023;SDS011;2026;51.002;13.668;2023-08-07T19:48:49;4.70;;;2.77;;
4023;SDS011;2026;51.002;13.668;2023-08-07T19:53:51;4.57;;;2.33;;
4023;SDS011;2026;51.002;13.668;2023-08-07T19:59:03;5.93;;;2.57;;
4023;SDS011;2026;51.002;13.668;2023-08-07T20:04:06;7.60;;;3.00;;
4023;SDS011;2026;51.002;13.668;2023-08-07T20:09:09;4.63;;;2.70;;
4023;SDS011;2026;51.002;13.668;2023-08-07T20:14:13;4.90;;;2.60;;
4023;SDS011;2026;51.002;13.668;2023-08-07T20:19:16;9.93;;;3.00;;
4023;SDS011;2026;51.002;13.668;2023-08-07T20:24:19;5.10;;;2.73;;
4023;SDS011;2026;51.002;13.668;2023-08-07T20:29:24;4.70;;;2.13;;
4023;SDS011;2026;51.002;13.668;2023-08-07T20:34:26;7.63;;;2.77;;
4023;SDS011;2026;51.002;13.668;2023-08-07T20:39:29;6.43;;;2.60;;
4023;SDS011;2026;51.002;13.668;2023-08-07T20:44:33;3.53;;;2.33;;
4023;SDS011;2026;51.002;13.668;2023-08-07T20:49:36;3.80;;;2.30;;
4023;SDS011;2026;51.002;13.668;2023-08-07T20:54:39;7.23;;;3.00;;
4023;SDS011;2026;51.002;13.668;2023-08-07T20:59:43;3.83;;;2.70;;
4023;SDS011;2026;51.002;13.668;2023-08-07T21:04:46;5.50;;;2.40;;
4023;SDS011;2026;51.002;13.668;2023-08-07T21:09:49;5.80;;;2.63;;
4023;SDS011;2026;51.002;13.668;2023-08-07T21:14:53;11.30;;;3.83;;
4023;SDS011;2026;51.002;13.668;2023-08-07T21:19:55;5.03;;;2.53;;
4023;SDS011;2026;51.002;13.668;2023-08-07T21:24:58;8.60;;;2.50;;
4023;SDS011;2026;51.002;13.668;2023-08-07T21:30:03;6.57;;;3.43;;
4023;SDS011;2026;51.002;13.668;2023-08-07T21:35:06;6.43;;;2.70;;
4023;SDS011;2026;51.002;13.668;2023-08-07T21:40:09;7.30;;;3.30;;
4023;SDS011;2026;51.002;13.668;2023-08-07T21:45:13;5.20;;;2.73;;
4023;SDS011;2026;51.002;13.668;2023-08-07T21:50:16;7.90;;;3.70;;
4023;SDS011;2026;51.002;13.668;2023-08-07T21:55:19;5.70;;;2.73;;
4023;SDS011;2026;51.002;13.668;2023-08-07T22:00:23;8.30;;;2.77;;
4023;SDS011;2026;51.002;13.668;2023-08-07T22:05:26;6.77;;;2.83;;
4023;SDS011;2026;51.002;13.668;2023-08-07T22:10:29;6.03;;;2.87;;
4023;SDS011;2026;51.002;13.668;2023-08-07T22:15:33;8.80;;;3.10;;
4023;SDS011;2026;51.002;13.668;2023-08-07T22:20:35;4.73;;;2.87;;
4023;SDS011;2026;51.002;13.668;2023-08-07T22:25:38;3.17;;;2.67;;
4023;SDS011;2026;51.002;13.668;2023-08-07T22:30:42;6.20;;;2.43;;
4023;SDS011;2026;51.002;13.668;2023-08-07T22:35:45;7.53;;;3.20;;
4023;SDS011;2026;51.002;13.668;2023-08-07T22:40:48;4.90;;;2.50;;
4023;SDS011;2026;51.002;13.668;2023-08-07T22:45:52;3.37;;;2.70;;
4023;SDS011;2026;51.002;13.668;2023-08-07T22:50:55;6.17;;;2.80;;
4023;SDS011;2026;51.002;13.668;2023-08-07T22:55:58;7.00;;;2.80;;
4023;SDS011;2026;51.002;13.668;2023-08-07T23:01:02;6.47;;;3.10;;
4023;SDS011;2026;51.002;13.668;2023-08-07T23:06:05;6.63;;;2.63;;
4023;SDS011;2026;51.002;13.668;2023-08-07T23:11:08;7.10;;;2.70;;
4023;SDS011;2026;51.002;13.668;2023-08-07T23:16:12;4.50;;;2.57;;
4023;SDS011;2026;51.002;13.668;2023-08-07T23:21:15;3.57;;;2.73;;
4023;SDS011;2026;51.002;13.668;2023-08-07T23:26:18;3.63;;;2.53;;
4023;SDS011;2026;51.002;13.668;2023-08-07T23:31:22;6.23;;;2.70;;
4023;SDS011;2026;51.002;13.668;2023-08-07T23:36:24;4.33;;;2.73;;
4023;SDS011;2026;51.002;13.668;2023-08-07T23:41:27;3.27;;;2.40;;
4023;SDS011;2026;51.002;13.668;2023-08-07T23:46:31;4.20;;;2.83;;
4023;SDS011;2026;51.002;13.668;2023-08-07T23:51:34;7.50;;;3.07;;
4023;SDS011;2026;51.002;13.668;2023-08-07T23:56:37;3.73;;;2.43;;
